sensor_id;sensor_type;location;lat;lon;timestamp;temperature;humidity
21815;DHT22;11069;48.988;8.450;2024-01-07T00:00:34;4.80;99.90
21815;DHT22;11069;48.988;8.450;2024-01-07T00:03:00;4.90;99.90
21815;DHT22;11069;48.988;8.450;2024-01-07T00:05:26;4.80;99.90
21815;DHT22;11069;48.988;8.450;2024-01-07T00:07:56;4.80;99.90
21815;DHT22;11069;48.988;8.450;2024-01-07T00:10:22;4.80;99.90
21815;DHT22;11069;48.988;8.450;2024-01-07T00:12:47;4.80;99.90
21815;DHT22;11069;48.988;8.450;2024-01-07T00:15:15;4.80;99.90
21815;DHT22;11069;48.988;8.450;2024-01-07T00:17:40;4.70;99.90
21815;DHT22;11069;48.988;8.450;2024-01-07T00:20:06;4.70;99.90
21815;DHT22;11069;48.988;8.450;2024-01-07T00:22:32;4.70;99.90
21815;DHT22;11069;48.988;8.450;2024-01-07T00:24:58;4.70;99.90
21815;DHT22;11069;48.988;8.450;2024-01-07T00:27:24;4.70;99.90
21815;DHT22;11069;48.988;8.450;2024-01-07T00:29:49;4.70;99.90
21815;DHT22;11069;48.988;8.450;2024-01-07T00:32:15;4.70;99.90
21815;DHT22;11069;48.988;8.450;2024-01-07T00:34:40;4.70;99.90
21815;DHT22;11069;48.988;8.450;2024-01-07T00:37:06;4.80;99.90
21815;DHT22;11069;48.988;8.450;2024-01-07T00:39:31;4.80;99.90
21815;DHT22;11069;48.988;8.450;2024-01-07T00:41:57;4.80;99.90
21815;DHT22;11069;48.988;8.450;2024-01-07T00:44:23;4.80;99.90
21815;DHT22;11069;48.988;8.450;2024-01-07T00:46:48;4.80;99.90
21815;DHT22;11069;48.988;8.450;2024-01-07T00:49:14;4.90;99.90
21815;DHT22;11069;48.988;8.450;2024-01-07T00:51:39;4.90;99.90
21815;DHT22;11069;48.988;8.450;2024-01-07T00:54:05;4.90;99.90
21815;DHT22;11069;48.988;8.450;2024-01-07T00:56:30;4.90;99.90
21815;DHT22;11069;48.988;8.450;2024-01-07T00:58:56;4.90;99.90
21815;DHT22;11069;48.988;8.450;2024-01-07T01:01:22;4.90;99.90
21815;DHT22;11069;48.988;8.450;2024-01-07T01:03:47;4.90;99.90
21815;DHT22;11069;48.988;8.450;2024-01-07T01:06:13;4.90;99.90
21815;DHT22;11069;48.988;8.450;2024-01-07T01:08:39;4.80;99.90
21815;DHT22;11069;48.988;8.450;2024-01-07T01:11:05;4.80;99.90
21815;DHT22;11069;48.988;8.450;2024-01-07T01:13:31;4.80;99.90
21815;DHT22;11069;48.988;8.450;2024-01-07T01:15:56;4.70;99.90
21815;DHT22;11069;48.988;8.450;2024-01-07T01:18:22;4.80;99.90
21815;DHT22;11069;48.988;8.450;2024-01-07T01:20:48;4.80;99.90
21815;DHT22;11069;48.988;8.450;2024-01-07T01:23:13;4.80;99.90
21815;DHT22;11069;48.988;8.450;2024-01-07T01:25:39;4.80;99.90
21815;DHT22;11069;48.988;8.450;2024-01-07T01:28:05;4.80;99.90
21815;DHT22;11069;48.988;8.450;2024-01-07T01:30:31;4.80;99.90
21815;DHT22;11069;48.988;8.450;2024-01-07T01:32:57;4.80;99.90
21815;DHT22;11069;48.988;8.450;2024-01-07T01:35:22;4.80;99.90
21815;DHT22;11069;48.988;8.450;2024-01-07T01:37:48;4.80;99.90
21815;DHT22;11069;48.988;8.450;2024-01-07T01:40:14;4.80;99.90
21815;DHT22;11069;48.988;8.450;2024-01-07T01:42:44;4.70;99.90
21815;DHT22;11069;48.988;8.450;2024-01-07T01:45:10;4.70;99.90
21815;DHT22;11069;48.988;8.450;2024-01-07T01:47:36;4.70;99.90
21815;DHT22;11069;48.988;8.450;2024-01-07T01:50:02;4.70;99.90
21815;DHT22;11069;48.988;8.450;2024-01-07T01:52:27;4.60;99.90
21815;DHT22;11069;48.988;8.450;2024-01-07T01:54:54;4.70;99.90
21815;DHT22;11069;48.988;8.450;2024-01-07T01:57:22;4.60;99.90
21815;DHT22;11069;48.988;8.450;2024-01-07T01:59:49;4.70;99.90
21815;DHT22;11069;48.988;8.450;2024-01-07T02:02:15;4.70;99.90
21815;DHT22;11069;48.988;8.450;2024-01-07T02:04:41;4.70;99.90
21815;DHT22;11069;48.988;8.450;2024-01-07T02:07:07;4.70;99.90
21815;DHT22;11069;48.988;8.450;2024-01-07T02:09:32;4.70;99.90
21815;DHT22;11069;48.988;8.450;2024-01-07T02:12:05;4.70;99.90
21815;DHT22;11069;48.988;8.450;2024-01-07T02:14:31;4.70;99.90
21815;DHT22;11069;48.988;8.450;2024-01-07T02:16:57;4.70;99.90
21815;DHT22;11069;48.988;8.450;2024-01-07T02:19:23;4.70;99.90
21815;DHT22;11069;48.988;8.450;2024-01-07T02:21:51;4.70;99.90
21815;DHT22;11069;48.988;8.450;2024-01-07T02:24:17;4.80;99.90
21815;DHT22;11069;48.988;8.450;2024-01-07T02:26:43;4.70;99.90
21815;DHT22;11069;48.988;8.450;2024-01-07T02:29:09;4.70;99.90
21815;DHT22;11069;48.988;8.450;2024-01-07T02:31:34;4.70;99.90
21815;DHT22;11069;48.988;8.450;2024-01-07T02:34:00;4.70;99.90
21815;DHT22;11069;48.988;8.450;2024-01-07T02:36:25;4.70;99.90
21815;DHT22;11069;48.988;8.450;2024-01-07T02:38:51;4.60;99.90
21815;DHT22;11069;48.988;8.450;2024-01-07T02:41:16;4.60;99.90
21815;DHT22;11069;48.988;8.450;2024-01-07T02:43:42;4.60;99.90
21815;DHT22;11069;48.988;8.450;2024-01-07T02:46:08;4.60;99.90
21815;DHT22;11069;48.988;8.450;2024-01-07T02:48:33;4.60;99.90
21815;DHT22;11069;48.988;8.450;2024-01-07T02:50:59;4.50;99.90
21815;DHT22;11069;48.988;8.450;2024-01-07T02:53:24;4.60;99.90
21815;DHT22;11069;48.988;8.450;2024-01-07T02:55:50;4.60;99.90
21815;DHT22;11069;48.988;8.450;2024-01-07T02:58:16;4.60;99.90
21815;DHT22;11069;48.988;8.450;2024-01-07T03:00:42;4.60;99.90
21815;DHT22;11069;48.988;8.450;2024-01-07T03:03:08;4.60;99.90
21815;DHT22;11069;48.988;8.450;2024-01-07T03:05:33;4.50;99.90
21815;DHT22;11069;48.988;8.450;2024-01-07T03:07:59;4.50;99.90
21815;DHT22;11069;48.988;8.450;2024-01-07T03:10:26;4.50;99.90
21815;DHT22;11069;48.988;8.450;2024-01-07T03:12:51;4.50;99.90
21815;DHT22;11069;48.988;8.450;2024-01-07T03:15:17;4.50;99.90
21815;DHT22;11069;48.988;8.450;2024-01-07T03:17:42;4.50;99.90
21815;DHT22;11069;48.988;8.450;2024-01-07T03:20:09;4.50;99.90
21815;DHT22;11069;48.988;8.450;2024-01-07T03:22:34;4.50;99.90
21815;DHT22;11069;48.988;8.450;2024-01-07T03:25:00;4.50;99.90
21815;DHT22;11069;48.988;8.450;2024-01-07T03:27:26;4.40;99.90
21815;DHT22;11069;48.988;8.450;2024-01-07T03:29:51;4.40;99.90
21815;DHT22;11069;48.988;8.450;2024-01-07T03:32:17;4.50;99.90
21815;DHT22;11069;48.988;8.450;2024-01-07T03:34:43;4.50;99.90
21815;DHT22;11069;48.988;8.450;2024-01-07T03:37:08;4.50;99.90
21815;DHT22;11069;48.988;8.450;2024-01-07T03:39:34;4.50;99.90
21815;DHT22;11069;48.988;8.450;2024-01-07T03:42:00;4.50;99.90
21815;DHT22;11069;48.988;8.450;2024-01-07T03:44:26;4.50;99.90
21815;DHT22;11069;48.988;8.450;2024-01-07T03:46:51;4.60;99.90
21815;DHT22;11069;48.988;8.450;2024-01-07T03:49:17;4.60;99.90
21815;DHT22;11069;48.988;8.450;2024-01-07T03:51:45;4.60;99.90
21815;DHT22;11069;48.988;8.450;2024-01-07T03:54:11;4.50;99.90
21815;DHT22;11069;48.988;8.450;2024-01-07T03:56:36;4.50;99.90
21815;DHT22;11069;48.988;8.450;2024-01-07T03:59:02;4.50;99.90
21815;DHT22;11069;48.988;8.450;2024-01-07T04:01:27;4.50;99.90
21815;DHT22;11069;48.988;8.450;2024-01-07T04:03:53;4.50;99.90
21815;DHT22;11069;48.988;8.450;2024-01-07T04:06:18;4.50;99.90
21815;DHT22;11069;48.988;8.450;2024-01-07T04:08:44;4.50;99.90
21815;DHT22;11069;48.988;8.450;2024-01-07T04:11:09;4.50;99.90
21815;DHT22;11069;48.988;8.450;2024-01-07T04:13:35;4.50;99.90
21815;DHT22;11069;48.988;8.450;2024-01-07T04:16:01;4.50;99.90
21815;DHT22;11069;48.988;8.450;2024-01-07T04:18:27;4.50;99.90
21815;DHT22;11069;48.988;8.450;2024-01-07T04:20:52;4.50;99.90
21815;DHT22;11069;48.988;8.450;2024-01-07T04:23:21;4.40;99.90
21815;DHT22;11069;48.988;8.450;2024-01-07T04:25:46;4.40;99.90
21815;DHT22;11069;48.988;8.450;2024-01-07T04:28:12;4.40;99.90
21815;DHT22;11069;48.988;8.450;2024-01-07T04:30:38;4.40;99.90
21815;DHT22;11069;48.988;8.450;2024-01-07T04:33:04;4.40;99.90
21815;DHT22;11069;48.988;8.450;2024-01-07T04:35:29;4.40;99.90
21815;DHT22;11069;48.988;8.450;2024-01-07T04:37:55;4.30;99.90
21815;DHT22;11069;48.988;8.450;2024-01-07T04:40:20;4.30;99.90
21815;DHT22;11069;48.988;8.450;2024-01-07T04:42:46;4.30;99.90
21815;DHT22;11069;48.988;8.450;2024-01-07T04:45:11;4.30;99.90
21815;DHT22;11069;48.988;8.450;2024-01-07T04:47:37;4.30;99.90
21815;DHT22;11069;48.988;8.450;2024-01-07T04:50:03;4.30;99.90
21815;DHT22;11069;48.988;8.450;2024-01-07T04:52:29;4.30;99.90
21815;DHT22;11069;48.988;8.450;2024-01-07T04:54:55;4.30;99.90
21815;DHT22;11069;48.988;8.450;2024-01-07T04:57:21;4.30;99.90
21815;DHT22;11069;48.988;8.450;2024-01-07T04:59:48;4.30;99.90
21815;DHT22;11069;48.988;8.450;2024-01-07T05:02:14;4.30;99.90
21815;DHT22;11069;48.988;8.450;2024-01-07T05:04:39;4.40;99.90
21815;DHT22;11069;48.988;8.450;2024-01-07T05:07:05;4.30;99.90
21815;DHT22;11069;48.988;8.450;2024-01-07T05:09:32;4.30;99.90
21815;DHT22;11069;48.988;8.450;2024-01-07T05:11:58;4.30;99.90
21815;DHT22;11069;48.988;8.450;2024-01-07T05:14:24;4.30;99.90
21815;DHT22;11069;48.988;8.450;2024-01-07T05:16:49;4.30;99.90
21815;DHT22;11069;48.988;8.450;2024-01-07T05:19:15;4.30;99.90
21815;DHT22;11069;48.988;8.450;2024-01-07T05:21:40;4.30;99.90
21815;DHT22;11069;48.988;8.450;2024-01-07T05:24:06;4.30;99.90
21815;DHT22;11069;48.988;8.450;2024-01-07T05:26:41;4.30;99.90
21815;DHT22;11069;48.988;8.450;2024-01-07T05:29:07;4.30;99.90
21815;DHT22;11069;48.988;8.450;2024-01-07T05:31:32;4.30;99.90
21815;DHT22;11069;48.988;8.450;2024-01-07T05:33:58;4.40;99.90
21815;DHT22;11069;48.988;8.450;2024-01-07T05:36:24;4.40;99.90
21815;DHT22;11069;48.988;8.450;2024-01-07T05:38:49;4.40;99.90
21815;DHT22;11069;48.988;8.450;2024-01-07T05:41:15;4.40;99.90
21815;DHT22;11069;48.988;8.450;2024-01-07T05:43:40;4.40;99.90
21815;DHT22;11069;48.988;8.450;2024-01-07T05:46:06;4.40;99.90
21815;DHT22;11069;48.988;8.450;2024-01-07T05:48:44;4.40;99.90
21815;DHT22;11069;48.988;8.450;2024-01-07T05:51:10;4.40;99.90
21815;DHT22;11069;48.988;8.450;2024-01-07T05:53:35;4.40;99.90
21815;DHT22;11069;48.988;8.450;2024-01-07T05:56:01;4.30;99.90
21815;DHT22;11069;48.988;8.450;2024-01-07T05:58:28;4.40;99.90
21815;DHT22;11069;48.988;8.450;2024-01-07T06:00:54;4.40;99.90
21815;DHT22;11069;48.988;8.450;2024-01-07T06:03:19;4.40;99.90
21815;DHT22;11069;48.988;8.450;2024-01-07T06:05:45;4.40;99.90
21815;DHT22;11069;48.988;8.450;2024-01-07T06:08:10;4.40;99.90
21815;DHT22;11069;48.988;8.450;2024-01-07T06:10:36;4.40;99.90
21815;DHT22;11069;48.988;8.450;2024-01-07T06:13:01;4.40;99.90
21815;DHT22;11069;48.988;8.450;2024-01-07T06:15:29;4.40;99.90
21815;DHT22;11069;48.988;8.450;2024-01-07T06:17:54;4.40;99.90
21815;DHT22;11069;48.988;8.450;2024-01-07T06:20:21;4.40;99.90
21815;DHT22;11069;48.988;8.450;2024-01-07T06:22:57;4.40;99.90
21815;DHT22;11069;48.988;8.450;2024-01-07T06:25:23;4.40;99.90
21815;DHT22;11069;48.988;8.450;2024-01-07T06:27:51;4.40;99.90
21815;DHT22;11069;48.988;8.450;2024-01-07T06:30:17;4.30;99.90
21815;DHT22;11069;48.988;8.450;2024-01-07T06:32:44;4.40;99.90
21815;DHT22;11069;48.988;8.450;2024-01-07T06:35:11;4.30;99.90
21815;DHT22;11069;48.988;8.450;2024-01-07T06:37:36;4.30;99.90
21815;DHT22;11069;48.988;8.450;2024-01-07T06:40:02;4.30;99.90
21815;DHT22;11069;48.988;8.450;2024-01-07T06:42:28;4.30;99.90
21815;DHT22;11069;48.988;8.450;2024-01-07T06:44:54;4.30;99.90
21815;DHT22;11069;48.988;8.450;2024-01-07T06:47:19;4.40;99.90
21815;DHT22;11069;48.988;8.450;2024-01-07T06:49:45;4.30;99.90
21815;DHT22;11069;48.988;8.450;2024-01-07T06:52:11;4.30;99.90
21815;DHT22;11069;48.988;8.450;2024-01-07T06:54:36;4.30;99.90
21815;DHT22;11069;48.988;8.450;2024-01-07T06:57:02;4.40;99.90
21815;DHT22;11069;48.988;8.450;2024-01-07T06:59:28;4.40;99.90
21815;DHT22;11069;48.988;8.450;2024-01-07T07:01:53;4.40;99.90
21815;DHT22;11069;48.988;8.450;2024-01-07T07:04:21;4.40;99.90
21815;DHT22;11069;48.988;8.450;2024-01-07T07:06:47;4.40;99.90
21815;DHT22;11069;48.988;8.450;2024-01-07T07:09:13;4.40;99.90
21815;DHT22;11069;48.988;8.450;2024-01-07T07:11:40;4.40;99.90
21815;DHT22;11069;48.988;8.450;2024-01-07T07:14:06;4.40;99.90
21815;DHT22;11069;48.988;8.450;2024-01-07T07:16:31;4.40;99.90
21815;DHT22;11069;48.988;8.450;2024-01-07T07:18:57;4.40;99.90
21815;DHT22;11069;48.988;8.450;2024-01-07T07:21:22;4.40;99.90
21815;DHT22;11069;48.988;8.450;2024-01-07T07:23:48;4.40;99.90
21815;DHT22;11069;48.988;8.450;2024-01-07T07:26:14;4.40;99.90
21815;DHT22;11069;48.988;8.450;2024-01-07T07:28:39;4.40;99.90
21815;DHT22;11069;48.988;8.450;2024-01-07T07:31:05;4.40;99.90
21815;DHT22;11069;48.988;8.450;2024-01-07T07:33:30;4.40;99.90
21815;DHT22;11069;48.988;8.450;2024-01-07T07:35:56;4.40;99.90
21815;DHT22;11069;48.988;8.450;2024-01-07T07:38:21;4.40;99.90
21815;DHT22;11069;48.988;8.450;2024-01-07T07:40:48;4.40;99.90
21815;DHT22;11069;48.988;8.450;2024-01-07T07:43:19;4.40;99.90
21815;DHT22;11069;48.988;8.450;2024-01-07T07:45:46;4.40;99.90
21815;DHT22;11069;48.988;8.450;2024-01-07T07:48:11;4.40;99.90
21815;DHT22;11069;48.988;8.450;2024-01-07T07:50:37;4.40;99.90
21815;DHT22;11069;48.988;8.450;2024-01-07T07:53:02;4.50;99.90
21815;DHT22;11069;48.988;8.450;2024-01-07T07:55:28;4.50;99.90
21815;DHT22;11069;48.988;8.450;2024-01-07T07:57:54;4.50;99.90
21815;DHT22;11069;48.988;8.450;2024-01-07T08:00:19;4.50;99.90
21815;DHT22;11069;48.988;8.450;2024-01-07T08:02:45;4.50;99.90
21815;DHT22;11069;48.988;8.450;2024-01-07T08:05:11;4.50;99.90
21815;DHT22;11069;48.988;8.450;2024-01-07T08:07:36;4.50;99.90
21815;DHT22;11069;48.988;8.450;2024-01-07T08:10:02;4.50;99.90
21815;DHT22;11069;48.988;8.450;2024-01-07T08:12:28;4.50;99.90
21815;DHT22;11069;48.988;8.450;2024-01-07T08:14:54;4.60;99.90
21815;DHT22;11069;48.988;8.450;2024-01-07T08:17:19;4.60;99.90
21815;DHT22;11069;48.988;8.450;2024-01-07T08:19:45;4.60;99.90
21815;DHT22;11069;48.988;8.450;2024-01-07T08:22:10;4.60;99.90
21815;DHT22;11069;48.988;8.450;2024-01-07T08:24:37;4.60;99.90
21815;DHT22;11069;48.988;8.450;2024-01-07T08:27:04;4.70;99.90
21815;DHT22;11069;48.988;8.450;2024-01-07T08:29:29;4.70;99.90
21815;DHT22;11069;48.988;8.450;2024-01-07T08:31:55;4.70;99.90
21815;DHT22;11069;48.988;8.450;2024-01-07T08:34:21;4.80;99.90
21815;DHT22;11069;48.988;8.450;2024-01-07T08:36:46;4.70;99.90
21815;DHT22;11069;48.988;8.450;2024-01-07T08:39:14;4.80;99.90
21815;DHT22;11069;48.988;8.450;2024-01-07T08:41:40;4.80;99.90
21815;DHT22;11069;48.988;8.450;2024-01-07T08:44:05;4.80;99.90
21815;DHT22;11069;48.988;8.450;2024-01-07T08:46:34;4.80;99.90
21815;DHT22;11069;48.988;8.450;2024-01-07T08:48:59;4.80;99.90
21815;DHT22;11069;48.988;8.450;2024-01-07T08:51:25;4.80;99.90
21815;DHT22;11069;48.988;8.450;2024-01-07T08:53:51;4.80;99.90
21815;DHT22;11069;48.988;8.450;2024-01-07T08:56:16;4.80;99.90
21815;DHT22;11069;48.988;8.450;2024-01-07T08:58:42;4.80;99.90
21815;DHT22;11069;48.988;8.450;2024-01-07T09:01:08;4.90;99.90
21815;DHT22;11069;48.988;8.450;2024-01-07T09:03:33;4.90;99.90
21815;DHT22;11069;48.988;8.450;2024-01-07T09:05:59;4.90;99.90
21815;DHT22;11069;48.988;8.450;2024-01-07T09:08:24;4.90;99.90
21815;DHT22;11069;48.988;8.450;2024-01-07T09:10:50;4.80;99.90
21815;DHT22;11069;48.988;8.450;2024-01-07T09:13:16;4.90;99.90
21815;DHT22;11069;48.988;8.450;2024-01-07T09:15:41;4.90;99.90
21815;DHT22;11069;48.988;8.450;2024-01-07T09:18:07;4.90;99.90
21815;DHT22;11069;48.988;8.450;2024-01-07T09:20:32;5.00;99.90
21815;DHT22;11069;48.988;8.450;2024-01-07T09:22:59;5.00;99.90
21815;DHT22;11069;48.988;8.450;2024-01-07T09:25:24;5.00;99.90
21815;DHT22;11069;48.988;8.450;2024-01-07T09:27:51;5.00;99.90
21815;DHT22;11069;48.988;8.450;2024-01-07T09:30:17;5.00;99.90
21815;DHT22;11069;48.988;8.450;2024-01-07T09:32:43;5.00;99.90
21815;DHT22;11069;48.988;8.450;2024-01-07T09:35:09;5.00;99.90
21815;DHT22;11069;48.988;8.450;2024-01-07T09:37:34;5.00;99.90
21815;DHT22;11069;48.988;8.450;2024-01-07T09:40:01;5.10;99.90
21815;DHT22;11069;48.988;8.450;2024-01-07T09:42:26;5.10;99.90
21815;DHT22;11069;48.988;8.450;2024-01-07T09:44:52;5.20;99.90
21815;DHT22;11069;48.988;8.450;2024-01-07T09:47:18;5.10;99.90
21815;DHT22;11069;48.988;8.450;2024-01-07T09:49:44;5.10;99.90
21815;DHT22;11069;48.988;8.450;2024-01-07T09:52:11;5.10;99.90
21815;DHT22;11069;48.988;8.450;2024-01-07T09:54:37;5.10;99.90
21815;DHT22;11069;48.988;8.450;2024-01-07T09:57:05;5.10;99.90
21815;DHT22;11069;48.988;8.450;2024-01-07T09:59:34;5.10;99.90
21815;DHT22;11069;48.988;8.450;2024-01-07T10:02:00;5.00;99.90
21815;DHT22;11069;48.988;8.450;2024-01-07T10:04:27;5.00;99.90
21815;DHT22;11069;48.988;8.450;2024-01-07T10:07:01;5.00;99.90
21815;DHT22;11069;48.988;8.450;2024-01-07T10:09:33;5.00;99.90
21815;DHT22;11069;48.988;8.450;2024-01-07T10:11:59;5.00;99.90
21815;DHT22;11069;48.988;8.450;2024-01-07T10:14:24;5.10;99.90
21815;DHT22;11069;48.988;8.450;2024-01-07T10:16:52;5.10;99.90
21815;DHT22;11069;48.988;8.450;2024-01-07T10:19:20;5.10;99.90
21815;DHT22;11069;48.988;8.450;2024-01-07T10:21:46;5.20;99.90
21815;DHT22;11069;48.988;8.450;2024-01-07T10:24:12;5.20;99.90
21815;DHT22;11069;48.988;8.450;2024-01-07T10:26:39;5.20;99.90
21815;DHT22;11069;48.988;8.450;2024-01-07T10:29:06;5.30;99.90
21815;DHT22;11069;48.988;8.450;2024-01-07T10:31:32;5.40;99.90
21815;DHT22;11069;48.988;8.450;2024-01-07T10:33:57;5.50;99.90
21815;DHT22;11069;48.988;8.450;2024-01-07T10:36:24;5.50;99.90
21815;DHT22;11069;48.988;8.450;2024-01-07T10:38:51;5.50;99.90
21815;DHT22;11069;48.988;8.450;2024-01-07T10:41:19;5.50;99.90
21815;DHT22;11069;48.988;8.450;2024-01-07T10:43:47;5.50;99.90
21815;DHT22;11069;48.988;8.450;2024-01-07T10:46:14;5.50;99.90
21815;DHT22;11069;48.988;8.450;2024-01-07T10:48:59;5.50;99.90
21815;DHT22;11069;48.988;8.450;2024-01-07T10:51:27;5.50;99.90
21815;DHT22;11069;48.988;8.450;2024-01-07T10:53:53;5.20;99.90
21815;DHT22;11069;48.988;8.450;2024-01-07T10:56:25;5.20;99.90
21815;DHT22;11069;48.988;8.450;2024-01-07T10:58:52;5.20;99.90
21815;DHT22;11069;48.988;8.450;2024-01-07T11:01:19;5.10;99.90
21815;DHT22;11069;48.988;8.450;2024-01-07T11:06:39;4.90;99.90
21815;DHT22;11069;48.988;8.450;2024-01-07T11:11:40;4.80;99.90
21815;DHT22;11069;48.988;8.450;2024-01-07T11:14:36;4.80;99.90
21815;DHT22;11069;48.988;8.450;2024-01-07T11:17:03;4.70;99.90
21815;DHT22;11069;48.988;8.450;2024-01-07T11:19:29;4.70;99.90
21815;DHT22;11069;48.988;8.450;2024-01-07T11:22:23;4.70;99.90
21815;DHT22;11069;48.988;8.450;2024-01-07T11:24:51;4.70;99.90
21815;DHT22;11069;48.988;8.450;2024-01-07T11:27:17;4.70;99.90
21815;DHT22;11069;48.988;8.450;2024-01-07T11:29:43;4.70;99.90
21815;DHT22;11069;48.988;8.450;2024-01-07T11:32:15;4.70;99.90
21815;DHT22;11069;48.988;8.450;2024-01-07T11:34:42;4.70;99.90
21815;DHT22;11069;48.988;8.450;2024-01-07T11:37:12;4.70;99.90
21815;DHT22;11069;48.988;8.450;2024-01-07T11:39:45;4.80;99.90
21815;DHT22;11069;48.988;8.450;2024-01-07T11:42:11;4.80;99.90
21815;DHT22;11069;48.988;8.450;2024-01-07T11:44:38;4.90;99.90
21815;DHT22;11069;48.988;8.450;2024-01-07T11:47:10;4.90;99.90
21815;DHT22;11069;48.988;8.450;2024-01-07T11:49:35;4.90;99.90
21815;DHT22;11069;48.988;8.450;2024-01-07T11:52:01;4.90;99.90
21815;DHT22;11069;48.988;8.450;2024-01-07T11:54:28;4.80;99.90
21815;DHT22;11069;48.988;8.450;2024-01-07T11:56:55;4.80;99.90
21815;DHT22;11069;48.988;8.450;2024-01-07T11:59:20;4.80;99.90
21815;DHT22;11069;48.988;8.450;2024-01-07T12:01:46;4.80;99.90
21815;DHT22;11069;48.988;8.450;2024-01-07T12:04:11;4.80;99.90
21815;DHT22;11069;48.988;8.450;2024-01-07T12:06:38;4.80;99.90
21815;DHT22;11069;48.988;8.450;2024-01-07T12:09:04;4.70;99.90
21815;DHT22;11069;48.988;8.450;2024-01-07T12:11:31;4.70;99.90
21815;DHT22;11069;48.988;8.450;2024-01-07T12:13:57;4.60;99.90
21815;DHT22;11069;48.988;8.450;2024-01-07T12:16:23;4.60;99.90
21815;DHT22;11069;48.988;8.450;2024-01-07T12:18:48;4.60;99.90
21815;DHT22;11069;48.988;8.450;2024-01-07T12:21:21;4.50;99.90
21815;DHT22;11069;48.988;8.450;2024-01-07T12:23:50;4.50;99.90
21815;DHT22;11069;48.988;8.450;2024-01-07T12:26:16;4.50;99.90
21815;DHT22;11069;48.988;8.450;2024-01-07T12:28:44;4.50;99.90
21815;DHT22;11069;48.988;8.450;2024-01-07T12:31:10;4.50;99.90
21815;DHT22;11069;48.988;8.450;2024-01-07T12:33:38;4.50;99.90
21815;DHT22;11069;48.988;8.450;2024-01-07T12:36:06;4.50;99.90
21815;DHT22;11069;48.988;8.450;2024-01-07T12:38:32;4.50;99.90
21815;DHT22;11069;48.988;8.450;2024-01-07T12:40:58;4.60;99.90
21815;DHT22;11069;48.988;8.450;2024-01-07T12:43:23;4.60;99.90
21815;DHT22;11069;48.988;8.450;2024-01-07T12:45:49;4.70;99.90
21815;DHT22;11069;48.988;8.450;2024-01-07T12:48:15;4.60;99.90
21815;DHT22;11069;48.988;8.450;2024-01-07T12:50:41;4.70;99.90
21815;DHT22;11069;48.988;8.450;2024-01-07T12:53:06;4.60;99.90
21815;DHT22;11069;48.988;8.450;2024-01-07T12:55:32;4.60;99.90
21815;DHT22;11069;48.988;8.450;2024-01-07T12:57:58;4.60;99.90
21815;DHT22;11069;48.988;8.450;2024-01-07T13:00:27;4.60;99.90
21815;DHT22;11069;48.988;8.450;2024-01-07T13:02:54;4.50;99.90
21815;DHT22;11069;48.988;8.450;2024-01-07T13:05:20;4.50;99.90
21815;DHT22;11069;48.988;8.450;2024-01-07T13:07:47;4.50;99.90
21815;DHT22;11069;48.988;8.450;2024-01-07T13:10:12;4.50;99.90
21815;DHT22;11069;48.988;8.450;2024-01-07T13:12:38;4.60;99.90
21815;DHT22;11069;48.988;8.450;2024-01-07T13:15:05;4.60;99.90
21815;DHT22;11069;48.988;8.450;2024-01-07T13:17:30;4.70;99.90
21815;DHT22;11069;48.988;8.450;2024-01-07T13:19:58;4.70;99.90
21815;DHT22;11069;48.988;8.450;2024-01-07T13:22:24;4.60;99.90
21815;DHT22;11069;48.988;8.450;2024-01-07T13:24:50;4.50;99.90
21815;DHT22;11069;48.988;8.450;2024-01-07T13:27:16;4.40;99.90
21815;DHT22;11069;48.988;8.450;2024-01-07T13:29:44;4.40;99.90
21815;DHT22;11069;48.988;8.450;2024-01-07T13:32:12;4.30;99.90
21815;DHT22;11069;48.988;8.450;2024-01-07T13:34:40;4.30;99.90
21815;DHT22;11069;48.988;8.450;2024-01-07T13:37:05;4.30;99.90
21815;DHT22;11069;48.988;8.450;2024-01-07T13:39:31;4.40;99.90
21815;DHT22;11069;48.988;8.450;2024-01-07T13:41:57;4.40;99.90
21815;DHT22;11069;48.988;8.450;2024-01-07T13:44:23;4.30;99.90
21815;DHT22;11069;48.988;8.450;2024-01-07T13:46:48;4.30;99.90
21815;DHT22;11069;48.988;8.450;2024-01-07T13:49:15;4.30;99.90
21815;DHT22;11069;48.988;8.450;2024-01-07T13:51:41;4.30;99.90
21815;DHT22;11069;48.988;8.450;2024-01-07T13:54:07;4.30;99.90
21815;DHT22;11069;48.988;8.450;2024-01-07T13:56:35;4.30;99.90
21815;DHT22;11069;48.988;8.450;2024-01-07T13:59:02;4.20;99.90
21815;DHT22;11069;48.988;8.450;2024-01-07T14:01:31;4.20;99.90
21815;DHT22;11069;48.988;8.450;2024-01-07T14:03:56;4.10;99.90
21815;DHT22;11069;48.988;8.450;2024-01-07T14:06:22;4.10;99.90
21815;DHT22;11069;48.988;8.450;2024-01-07T14:08:47;4.10;99.90
21815;DHT22;11069;48.988;8.450;2024-01-07T14:11:13;4.00;99.90
21815;DHT22;11069;48.988;8.450;2024-01-07T14:13:39;3.90;99.90
21815;DHT22;11069;48.988;8.450;2024-01-07T14:16:05;3.90;99.90
21815;DHT22;11069;48.988;8.450;2024-01-07T14:18:30;3.90;99.90
21815;DHT22;11069;48.988;8.450;2024-01-07T14:20:56;3.80;99.90
21815;DHT22;11069;48.988;8.450;2024-01-07T14:23:22;3.80;99.90
21815;DHT22;11069;48.988;8.450;2024-01-07T14:25:47;3.80;99.90
21815;DHT22;11069;48.988;8.450;2024-01-07T14:28:13;3.80;99.90
21815;DHT22;11069;48.988;8.450;2024-01-07T14:30:39;3.80;99.90
21815;DHT22;11069;48.988;8.450;2024-01-07T14:33:04;3.70;99.90
21815;DHT22;11069;48.988;8.450;2024-01-07T14:35:30;3.70;99.90
21815;DHT22;11069;48.988;8.450;2024-01-07T14:37:58;3.70;99.90
21815;DHT22;11069;48.988;8.450;2024-01-07T14:40:25;3.60;99.90
21815;DHT22;11069;48.988;8.450;2024-01-07T14:42:50;3.60;99.90
21815;DHT22;11069;48.988;8.450;2024-01-07T14:45:20;3.70;99.90
21815;DHT22;11069;48.988;8.450;2024-01-07T14:47:45;3.70;99.90
21815;DHT22;11069;48.988;8.450;2024-01-07T14:50:11;3.70;99.90
21815;DHT22;11069;48.988;8.450;2024-01-07T14:52:37;3.60;99.90
21815;DHT22;11069;48.988;8.450;2024-01-07T14:55:02;3.60;99.90
21815;DHT22;11069;48.988;8.450;2024-01-07T14:57:28;3.60;99.90
21815;DHT22;11069;48.988;8.450;2024-01-07T14:59:53;3.60;99.90
21815;DHT22;11069;48.988;8.450;2024-01-07T15:02:19;3.60;99.90
21815;DHT22;11069;48.988;8.450;2024-01-07T15:04:46;3.60;99.90
21815;DHT22;11069;48.988;8.450;2024-01-07T15:07:11;3.50;99.90
21815;DHT22;11069;48.988;8.450;2024-01-07T15:09:40;3.50;99.90
21815;DHT22;11069;48.988;8.450;2024-01-07T15:12:07;3.40;99.90
21815;DHT22;11069;48.988;8.450;2024-01-07T15:14:32;3.30;99.90
21815;DHT22;11069;48.988;8.450;2024-01-07T15:16:58;3.30;99.90
21815;DHT22;11069;48.988;8.450;2024-01-07T15:19:24;3.30;99.90
21815;DHT22;11069;48.988;8.450;2024-01-07T15:21:50;3.30;99.90
21815;DHT22;11069;48.988;8.450;2024-01-07T15:24:15;3.20;99.90
21815;DHT22;11069;48.988;8.450;2024-01-07T15:26:41;3.20;99.90
21815;DHT22;11069;48.988;8.450;2024-01-07T15:29:06;3.20;99.90
21815;DHT22;11069;48.988;8.450;2024-01-07T15:31:32;3.20;99.90
21815;DHT22;11069;48.988;8.450;2024-01-07T15:33:57;3.20;99.90
21815;DHT22;11069;48.988;8.450;2024-01-07T15:36:23;3.20;99.90
21815;DHT22;11069;48.988;8.450;2024-01-07T15:38:49;3.10;99.90
21815;DHT22;11069;48.988;8.450;2024-01-07T15:41:14;3.10;99.90
21815;DHT22;11069;48.988;8.450;2024-01-07T15:43:40;3.10;99.90